Time;durP1;ratioP1;P1;durP2;ratioP2;P2;SDS_P1;SDS_P2;PMS_P1;PMS_P2;Temp;Humidity;BMP_temperature;BMP_pressure;BME280_temperature;BME280_humidity;BME280_pressure;Samples;Min_cycle;Max_cycle;Signal;HPM_P1;HPM_P2
2022/01/01 00:00:18;;;;;;;18.58;11.40;;;;;;;5.33;100.00;91246.56;4991595;28;20513;-69
2022/01/01 00:02:44;;;;;;;14.60;7.82;;;;;;;5.36;100.00;91251.28;4991513;28;20073;-69
2022/01/01 00:05:12;;;;;;;18.83;11.10;;;;;;;5.33;100.00;91249.97;4995312;28;20113;-69
2022/01/01 00:07:40;;;;;;;32.45;18.20;;;;;;;5.32;100.00;91247.59;4995527;28;20038;-69
2022/01/01 00:10:09;;;;;;;18.05;10.70;;;;;;;5.29;100.00;91245.50;4995445;28;20038;-69
2022/01/01 00:12:34;;;;;;;31.70;18.80;;;;;;;5.26;100.00;91243.41;4995358;28;20129;-69
2022/01/01 00:15:01;;;;;;;25.90;14.25;;;;;;;5.32;100.00;91247.59;4995373;28;20077;-69
2022/01/01 00:17:26;;;;;;;13.48;8.45;;;;;;;5.30;100.00;91237.31;4995194;28;20052;-69
2022/01/01 00:19:52;;;;;;;13.65;8.52;;;;;;;5.26;100.00;91240.78;4995177;28;20038;-69
2022/01/01 00:22:18;;;;;;;13.27;9.13;;;;;;;5.26;100.00;91243.41;4995214;28;20057;-68
2022/01/01 00:24:46;;;;;;;17.75;10.60;;;;;;;5.21;100.00;91241.59;4995204;28;20049;-68
2022/01/01 00:27:12;;;;;;;20.85;11.68;;;;;;;5.25;100.00;91249.75;4994900;28;20046;-69
2022/01/01 00:29:40;;;;;;;20.70;13.23;;;;;;;5.07;100.00;91259.03;4995058;28;20523;-69
2022/01/01 00:32:06;;;;;;;31.05;21.50;;;;;;;5.01;100.00;91257.44;4995015;28;20043;-69
2022/01/01 00:34:33;;;;;;;30.17;15.63;;;;;;;4.93;100.00;91253.50;4994902;28;20092;-69
2022/01/01 00:36:59;;;;;;;18.15;10.75;;;;;;;4.86;100.00;91258.25;4994784;28;20042;-69
2022/01/01 00:39:24;;;;;;;18.10;10.93;;;;;;;4.70;100.00;91257.47;4993686;28;20058;-70
2022/01/01 00:41:50;;;;;;;10.75;6.63;;;;;;;4.71;100.00;91253.00;4994792;28;20042;-70
2022/01/01 00:44:15;;;;;;;14.20;9.52;;;;;;;4.58;100.00;91250.91;4994836;28;20169;-69
2022/01/01 00:46:41;;;;;;;12.68;8.05;;;;;;;4.55;100.00;91248.78;5161581;23;20443;-65
2022/01/01 00:49:06;;;;;;;5.85;3.95;;;;;;;4.57;100.00;91241.41;5014810;28;20121;-65
2022/01/01 00:51:32;;;;;;;5.10;3.78;;;;;;;4.61;100.00;91247.75;5014765;28;20029;-65
2022/01/01 00:53:57;;;;;;;8.60;5.60;;;;;;;4.60;100.00;91240.91;5014436;28;20125;-65
2022/01/01 00:56:23;;;;;;;4.30;3.28;;;;;;;4.56;100.00;91245.88;5014417;28;20061;-65
2022/01/01 00:58:48;;;;;;;8.20;5.10;;;;;;;4.57;100.00;91226.38;5014347;28;20062;-65
2022/01/01 01:01:14;;;;;;;7.20;5.30;;;;;;;4.56;100.00;91237.97;5014377;28;20040;-65
2022/01/01 01:03:39;;;;;;;10.18;5.80;;;;;;;4.65;100.00;91235.63;5014253;28;20050;-65
2022/01/01 01:06:05;;;;;;;4.47;3.40;;;;;;;4.66;100.00;91232.72;5014141;28;20117;-65
2022/01/01 01:08:30;;;;;;;4.18;2.83;;;;;;;4.77;100.00;91233.50;5014121;28;20084;-65
2022/01/01 01:10:57;;;;;;;5.18;3.17;;;;;;;4.78;100.00;91225.31;5014164;28;20032;-65
2022/01/01 01:13:24;;;;;;;3.50;3.08;;;;;;;4.84;100.00;91215.56;5014165;28;20030;-65
2022/01/01 01:15:50;;;;;;;5.28;4.25;;;;;;;4.81;100.00;91216.09;5013932;28;20117;-66
2022/01/01 01:18:16;;;;;;;9.80;6.57;;;;;;;4.72;100.00;91215.81;5014211;28;20093;-65
2022/01/01 01:20:41;;;;;;;5.30;3.72;;;;;;;4.57;100.00;91222.97;5014248;28;20502;-65
2022/01/01 01:23:08;;;;;;;10.93;8.02;;;;;;;4.59;100.00;91220.88;5013926;28;20030;-65
2022/01/01 01:25:40;;;;;;;7.93;6.03;;;;;;;4.35;100.00;91221.38;5013894;28;20092;-64
2022/01/01 01:28:08;;;;;;;4.22;3.20;;;;;;;4.26;100.00;91220.34;5013697;28;20033;-65
2022/01/01 01:30:38;;;;;;;6.22;4.53;;;;;;;4.25;100.00;91212.69;5013839;28;20042;-65
2022/01/01 01:33:05;;;;;;;7.30;5.70;;;;;;;4.26;100.00;91201.91;5013793;28;20040;-65
2022/01/01 01:35:31;;;;;;;8.75;6.43;;;;;;;4.24;100.00;91193.47;5014002;28;20034;-65
2022/01/01 01:37:57;;;;;;;21.63;13.65;;;;;;;4.19;100.00;91190.84;5013576;28;20454;-65
2022/01/01 01:40:22;;;;;;;8.32;5.55;;;;;;;3.95;100.00;91189.78;5013557;28;20045;-65
2022/01/01 01:42:48;;;;;;;22.08;13.35;;;;;;;3.87;100.00;91186.59;5013544;28;20079;-65
2022/01/01 01:45:19;;;;;;;22.42;13.40;;;;;;;3.85;100.00;91190.56;5012213;28;20408;-65
2022/01/01 01:47:46;;;;;;;8.77;6.50;;;;;;;3.67;100.00;91199.75;5012969;28;20042;-65
2022/01/01 01:50:14;;;;;;;7.57;4.60;;;;;;;3.49;100.00;91200.22;5013358;28;20042;-65
2022/01/01 01:52:43;;;;;;;22.10;12.98;;;;;;;3.44;100.00;91200.97;5013415;28;20415;-65
2022/01/01 01:55:11;;;;;;;26.65;13.90;;;;;;;3.29;100.00;91193.81;5013583;28;20041;-65
2022/01/01 01:57:40;;;;;;;19.00;11.25;;;;;;;3.35;100.00;91201.75;5013244;28;20038;-65
2022/01/01 02:00:18;;;;;;;23.73;14.20;;;;;;;3.41;100.00;91198.09;5028384;28;20038;-65
2022/01/01 02:02:43;;;;;;;18.50;11.07;;;;;;;3.51;100.00;91203.38;5013197;28;20030;-65
2022/01/01 02:05:09;;;;;;;10.75;7.57;;;;;;;3.65;100.00;91199.22;5013138;28;20060;-65
2022/01/01 02:07:35;;;;;;;9.07;6.43;;;;;;;3.80;100.00;91196.63;5013234;28;20026;-65
2022/01/01 02:10:01;;;;;;;5.65;4.60;;;;;;;4.07;100.00;91206.88;5013040;28;20534;-65
2022/01/01 02:12:26;;;;;;;6.18;4.20;;;;;;;4.27;100.00;91207.97;5012941;28;20038;-65
2022/01/01 02:17:24;;;;;;;4.10;3.58;;;;;;;4.44;100.00;91214.56;5012806;28;20034;-65
2022/01/01 02:19:55;;;;;;;6.07;4.60;;;;;;;4.58;100.00;91224.56;5012890;28;20416;-65
2022/01/01 02:22:22;;;;;;;5.85;5.05;;;;;;;4.67;100.00;91223.75;5012814;28;20056;-65
2022/01/01 02:24:47;;;;;;;6.63;5.47;;;;;;;4.61;100.00;91222.19;5012811;28;20033;-65
2022/01/01 02:27:13;;;;;;;8.23;6.97;;;;;;;4.62;100.00;91230.88;5012002;28;20088;-65
2022/01/01 02:29:39;;;;;;;8.63;7.45;;;;;;;4.49;100.00;91232.97;5012650;28;20546;-65
2022/01/01 02:32:11;;;;;;;9.38;7.18;;;;;;;4.65;100.00;91232.97;5012596;28;20515;-65
2022/01/01 02:34:37;;;;;;;5.68;4.63;;;;;;;4.71;100.00;91234.53;5012702;28;20103;-66
2022/01/01 02:37:03;;;;;;;5.38;4.05;;;;;;;4.80;100.00;91232.97;5012395;28;20045;-65
2022/01/01 02:39:29;;;;;;;4.68;4.03;;;;;;;4.79;100.00;91234.81;5012596;28;20041;-65
2022/01/01 02:41:55;;;;;;;7.22;5.10;;;;;;;4.82;100.00;91233.47;5012434;28;20037;-65
2022/01/01 02:44:24;;;;;;;6.15;4.05;;;;;;;4.83;100.00;91237.69;5012431;28;20495;-65
2022/01/01 02:46:55;;;;;;;3.30;2.67;;;;;;;4.81;100.00;91237.97;5012214;28;20070;-65
2022/01/01 02:49:21;;;;;;;7.75;4.03;;;;;;;4.71;100.00;91239.81;5012364;28;20040;-65
2022/01/01 02:51:46;;;;;;;8.07;4.63;;;;;;;4.67;100.00;91238.78;5012365;28;20038;-65
2022/01/01 02:54:12;;;;;;;6.38;4.40;;;;;;;4.77;100.00;91225.59;5012238;28;20585;-65
2022/01/01 02:56:38;;;;;;;3.58;2.72;;;;;;;4.83;100.00;91224.53;5012154;28;20034;-65
2022/01/01 02:59:04;;;;;;;6.50;3.53;;;;;;;4.94;100.00;91231.38;5012161;28;20092;-65
2022/01/01 03:01:29;;;;;;;3.35;2.53;;;;;;;4.98;100.00;91229.75;5027306;28;20494;-65
2022/01/01 03:03:55;;;;;;;4.25;2.88;;;;;;;5.04;100.00;91231.31;5012081;28;20037;-65
2022/01/01 03:06:20;;;;;;;4.18;2.75;;;;;;;5.11;100.00;91223.16;5011952;28;20105;-65
2022/01/01 03:08:51;;;;;;;4.43;2.97;;;;;;;5.08;100.00;91223.69;5012209;28;20570;-65
2022/01/01 03:11:17;;;;;;;4.85;3.17;;;;;;;5.07;100.00;91233.44;5012025;28;20495;-65
2022/01/01 03:13:44;;;;;;;2.67;2.40;;;;;;;5.08;100.00;91231.59;5011931;28;20104;-65
2022/01/01 03:16:10;;;;;;;5.00;2.88;;;;;;;5.13;100.00;91226.31;5011812;28;20041;-65
2022/01/01 03:18:35;;;;;;;9.32;5.18;;;;;;;5.09;100.00;91215.50;5011868;28;20038;-65
2022/01/01 03:21:01;;;;;;;16.25;8.60;;;;;;;5.11;100.00;91215.25;5011837;28;20467;-65
2022/01/01 03:23:26;;;;;;;11.48;5.68;;;;;;;5.11;100.00;91207.31;5011793;28;20034;-65
2022/01/01 03:25:52;;;;;;;7.53;4.60;;;;;;;5.14;100.00;91204.16;5011581;28;20034;-65
2022/01/01 03:28:17;;;;;;;5.85;3.40;;;;;;;5.23;100.00;91207.81;5011620;28;20042;-65
2022/01/01 03:30:43;;;;;;;4.93;3.08;;;;;;;5.20;100.00;91199.63;5011600;28;20041;-65
2022/01/01 03:33:08;;;;;;;4.65;2.83;;;;;;;5.17;100.00;91202.81;5011558;28;20026;-65
2022/01/01 03:35:34;;;;;;;2.95;2.22;;;;;;;5.16;100.00;91199.38;5011551;28;20029;-65
2022/01/01 03:37:59;;;;;;;10.15;4.50;;;;;;;5.14;100.00;91193.59;5010642;28;20113;-65
2022/01/01 03:40:25;;;;;;;9.73;5.65;;;;;;;5.23;100.00;91197.28;5011571;28;20091;-65
2022/01/01 03:42:51;;;;;;;7.20;4.10;;;;;;;5.29;100.00;91190.91;5011561;28;20034;-65
2022/01/01 03:45:16;;;;;;;3.17;2.70;;;;;;;5.41;100.00;91187.97;5011517;28;20463;-65
2022/01/01 03:47:42;;;;;;;3.15;2.30;;;;;;;5.48;100.00;91188.44;5011108;28;20072;-65
2022/01/01 03:50:07;;;;;;;2.95;2.30;;;;;;;5.49;100.00;91187.38;5011382;28;20038;-65
2022/01/01 03:52:34;;;;;;;15.63;8.80;;;;;;;5.36;100.00;91195.88;5011421;28;20034;-65
2022/01/01 03:55:00;;;;;;;6.22;4.55;;;;;;;5.46;100.00;91195.84;5011286;28;20038;-65
2022/01/01 03:57:26;;;;;;;7.63;4.80;;;;;;;5.57;100.00;91194.75;5011289;28;20495;-65
2022/01/01 03:59:51;;;;;;;7.32;3.90;;;;;;;5.59;100.00;91190.00;5011327;28;20041;-65
2022/01/01 04:02:17;;;;;;;2.75;2.15;;;;;;;5.67;100.00;91199.19;5011397;28;20657;-65
2022/01/01 04:04:42;;;;;;;4.65;3.58;;;;;;;5.73;100.00;91200.75;5011200;28;20061;-65
2022/01/01 04:07:09;;;;;;;4.53;3.15;;;;;;;5.83;100.00;91198.03;5011190;28;20053;-65
2022/01/01 04:09:35;;;;;;;2.47;2.00;;;;;;;5.77;100.00;91179.88;5011233;28;20041;-65
2022/01/01 04:12:00;;;;;;;2.55;1.98;;;;;;;5.98;100.00;91189.25;5011260;28;20584;-65
2022/01/01 04:14:26;;;;;;;4.03;3.60;;;;;;;6.06;100.00;91195.84;5011258;28;20044;-65
2022/01/01 04:16:53;;;;;;;2.58;2.20;;;;;;;6.04;100.00;91196.13;5011109;28;20045;-65
2022/01/01 04:19:20;;;;;;;3.08;2.78;;;;;;;6.08;100.00;91204.28;5011217;28;20125;-65
2022/01/01 04:21:46;;;;;;;2.53;2.20;;;;;;;6.10;100.00;91202.94;5011212;28;20038;-65
2022/01/01 04:24:11;;;;;;;1.73;1.63;;;;;;;6.19;100.00;91201.28;5011094;28;20578;-65
2022/01/01 04:26:37;;;;;;;1.70;1.60;;;;;;;6.22;100.00;91190.16;5011024;28;20125;-65
2022/01/01 04:29:03;;;;;;;1.85;1.67;;;;;;;6.17;100.00;91177.00;5010959;28;20030;-65
2022/01/01 04:31:28;;;;;;;2.00;1.80;;;;;;;6.16;100.00;91198.41;5011123;28;20088;-65
2022/01/01 04:33:54;;;;;;;2.40;2.20;;;;;;;5.93;100.00;91176.91;5011018;28;20060;-65
2022/01/01 04:36:21;;;;;;;22.63;10.52;;;;;;;6.07;100.00;91165.72;5010981;28;20058;-65
2022/01/01 04:38:46;;;;;;;2.35;2.05;;;;;;;6.04;100.00;91164.41;5011359;28;20112;-65
2022/01/01 04:41:16;;;;;;;2.58;1.98;;;;;;;6.11;100.00;91182.59;5011061;28;20145;-65
2022/01/01 04:43:42;;;;;;;4.40;3.33;;;;;;;6.17;100.00;91169.09;5011048;28;20132;-65
2022/01/01 04:46:10;;;;;;;3.83;2.95;;;;;;;6.25;100.00;91175.63;5010906;28;20045;-65
2022/01/01 04:48:37;;;;;;;2.75;1.60;;;;;;;6.39;100.00;91178.41;5010724;28;20042;-65
2022/01/01 04:51:07;;;;;;;8.40;4.40;;;;;;;6.43;100.00;91177.59;5014170;28;20488;-65
2022/01/01 04:53:39;;;;;;;6.38;3.97;;;;;;;6.47;100.00;91164.59;5014577;28;20423;-65
2022/01/01 04:56:06;;;;;;;3.72;2.88;;;;;;;6.50;100.00;91151.63;5014343;28;20042;-65
2022/01/01 04:58:32;;;;;;;3.40;2.25;;;;;;;6.56;100.00;91157.66;5014473;28;20092;-65
2022/01/01 05:00:57;;;;;;;3.20;2.47;;;;;;;6.61;100.00;91149.69;5029497;28;20054;-65
2022/01/01 05:03:23;;;;;;;21.30;10.93;;;;;;;6.65;100.00;91149.94;5014238;28;20034;-65
2022/01/01 05:05:48;;;;;;;11.20;6.65;;;;;;;6.60;100.00;91129.59;5014149;28;20124;-65
2022/01/01 05:08:14;;;;;;;6.18;4.13;;;;;;;6.67;100.00;91129.28;5012732;28;20041;-65
2022/01/01 05:10:39;;;;;;;3.22;2.63;;;;;;;6.69;100.00;91124.50;5029237;28;20038;-65
2022/01/01 05:13:05;;;;;;;3.85;3.08;;;;;;;6.77;100.00;91139.75;5014130;28;20030;-65
2022/01/01 05:15:31;;;;;;;5.05;3.85;;;;;;;6.81;100.00;91115.13;5014014;28;20048;-65
2022/01/01 05:17:57;;;;;;;4.00;3.13;;;;;;;6.82;100.00;91106.13;5014042;28;20474;-65
2022/01/01 05:20:22;;;;;;;4.28;3.03;;;;;;;6.94;100.00;91110.22;5013996;28;20125;-65
2022/01/01 05:22:48;;;;;;;3.15;2.13;;;;;;;7.03;100.00;91121.75;5013976;28;20052;-65
2022/01/01 05:25:13;;;;;;;10.23;6.15;;;;;;;7.03;100.00;91124.41;5013900;28;20029;-65
2022/01/01 05:27:40;;;;;;;19.10;10.30;;;;;;;7.03;100.00;91119.13;5013720;28;20451;-65
2022/01/01 05:30:07;;;;;;;5.18;3.08;;;;;;;7.15;100.00;91122.16;5014077;28;20049;-65
2022/01/01 05:32:32;;;;;;;5.15;3.50;;;;;;;7.25;100.00;91129.16;5013838;28;20063;-65
2022/01/01 05:34:59;;;;;;;8.20;4.97;;;;;;;7.13;100.00;91119.00;5013733;28;20467;-65
2022/01/01 05:37:25;;;;;;;7.28;4.13;;;;;;;7.27;100.00;91129.69;5013668;28;20034;-65
2022/01/01 05:39:50;;;;;;;4.05;3.63;;;;;;;7.42;100.00;91126.88;5013649;28;20037;-65
2022/01/01 05:42:16;;;;;;;4.05;3.22;;;;;;;7.49;100.00;91128.06;5013589;28;20415;-65
2022/01/01 05:44:41;;;;;;;2.65;2.00;;;;;;;7.54;100.00;91126.44;5013410;28;20061;-65
2022/01/01 05:47:07;;;;;;;2.25;2.10;;;;;;;7.64;100.00;91119.16;5013170;28;20165;-65
2022/01/01 05:49:32;;;;;;;3.33;3.03;;;;;;;7.72;100.00;91123.78;5013402;28;20049;-66
2022/01/01 05:51:58;;;;;;;3.83;3.22;;;;;;;7.80;100.00;91135.63;5013405;28;20069;-66
2022/01/01 05:54:23;;;;;;;5.53;3.63;;;;;;;7.69;100.00;91148.19;5013333;28;20041;-66
2022/01/01 05:56:49;;;;;;;5.78;4.45;;;;;;;7.46;100.00;91143.75;5013202;28;20444;-66
2022/01/01 05:59:14;;;;;;;18.80;6.85;;;;;;;7.36;100.00;91138.56;5013250;28;20038;-66
2022/01/01 06:01:40;;;;;;;5.65;5.15;;;;;;;7.48;100.00;91147.69;5012383;28;20416;-66
2022/01/01 06:04:05;;;;;;;1.83;1.73;;;;;;;7.75;100.00;91162.19;5013114;28;20034;-66
2022/01/01 06:06:31;;;;;;;2.10;1.88;;;;;;;7.83;100.00;91169.47;5013049;28;20069;-66
2022/01/01 06:08:56;;;;;;;3.15;2.85;;;;;;;7.81;100.00;91168.97;5013004;28;20041;-66
2022/01/01 06:11:22;;;;;;;2.65;1.85;;;;;;;7.81;100.00;91176.91;5013013;28;20144;-66
2022/01/01 06:13:47;;;;;;;3.20;2.90;;;;;;;7.74;100.00;91176.50;5013278;28;20053;-66
2022/01/01 06:16:13;;;;;;;2.78;2.58;;;;;;;7.68;100.00;91189.00;5012810;28;20444;-66
2022/01/01 06:18:38;;;;;;;2.78;2.53;;;;;;;7.56;100.00;91178.00;5012861;28;20042;-66
2022/01/01 06:21:04;;;;;;;3.67;3.20;;;;;;;7.47;100.00;91193.75;5012826;28;20034;-66
2022/01/01 06:23:30;;;;;;;14.13;7.13;;;;;;;7.42;100.00;91204.41;5011503;28;20037;-66
2022/01/01 06:25:55;;;;;;;16.35;10.35;;;;;;;7.53;100.00;91201.63;5012609;28;20038;-66
2022/01/01 06:28:21;;;;;;;15.10;8.85;;;;;;;7.62;100.00;91206.03;5012600;28;20054;-66
2022/01/01 06:30:46;;;;;;;11.90;8.15;;;;;;;7.58;100.00;91206.88;5012614;28;20484;-66
2022/01/01 06:33:17;;;;;;;8.63;5.68;;;;;;;7.66;100.00;91199.09;5012682;28;20033;-66
2022/01/01 06:35:45;;;;;;;9.43;5.68;;;;;;;7.69;100.00;91200.38;5012738;28;20435;-66
2022/01/01 06:38:12;;;;;;;15.02;8.95;;;;;;;7.72;100.00;91194.50;5012509;28;20034;-66
2022/01/01 06:40:41;;;;;;;18.10;10.95;;;;;;;7.66;100.00;91179.75;5012470;28;20050;-66
2022/01/01 06:43:09;;;;;;;14.65;10.43;;;;;;;7.67;100.00;91194.56;5012501;28;20125;-66
2022/01/01 06:45:34;;;;;;;14.23;9.20;;;;;;;7.73;100.00;91188.94;5012316;28;20405;-66
2022/01/01 06:48:00;;;;;;;4.50;3.25;;;;;;;7.89;100.00;91202.78;5012081;28;20053;-66
2022/01/01 06:50:25;;;;;;;6.32;4.38;;;;;;;7.93;99.78;91190.53;5012339;28;20496;-66
2022/01/01 06:52:51;;;;;;;9.38;5.57;;;;;;;7.92;100.00;91199.56;5012343;28;20033;-66
2022/01/01 06:55:17;;;;;;;12.60;9.25;;;;;;;7.86;100.00;91195.38;5012125;28;20037;-67
2022/01/01 06:57:44;;;;;;;15.75;10.90;;;;;;;7.83;100.00;91209.19;5012222;28;20049;-66
2022/01/01 07:00:11;;;;;;;13.23;9.15;;;;;;;7.91;100.00;91207.78;5012120;28;20069;-66
2022/01/01 07:02:41;;;;;;;9.48;6.95;;;;;;;8.03;98.99;91221.38;5012204;28;20046;-66
2022/01/01 07:05:08;;;;;;;9.15;6.35;;;;;;;7.95;99.68;91220.16;5012168;28;20038;-66
2022/01/01 07:07:33;;;;;;;9.30;5.93;;;;;;;7.95;99.61;91212.22;5011901;28;20046;-67
2022/01/01 07:09:59;;;;;;;9.88;6.90;;;;;;;7.86;100.00;91219.22;5012051;28;20165;-66
2022/01/01 07:12:24;;;;;;;11.35;7.63;;;;;;;7.73;100.00;91211.97;5011858;28;20084;-66
2022/01/01 07:14:50;;;;;;;17.50;10.52;;;;;;;7.76;100.00;91222.00;5027023;28;20524;-66
2022/01/01 07:17:15;;;;;;;14.55;8.93;;;;;;;7.86;100.00;91223.72;5010550;28;20056;-66
2022/01/01 07:19:41;;;;;;;11.85;7.85;;;;;;;8.11;100.00;91218.91;5011876;28;20053;-66
2022/01/01 07:22:06;;;;;;;11.15;6.65;;;;;;;8.47;99.08;91220.28;5011821;28;20048;-66
2022/01/01 07:24:32;;;;;;;24.90;14.45;;;;;;;8.80;95.17;91218.44;5011821;28;20574;-66
2022/01/01 07:26:57;;;;;;;12.57;9.05;;;;;;;8.79;93.75;91212.34;5011640;28;20042;-66
2022/01/01 07:29:23;;;;;;;10.65;7.70;;;;;;;8.68;94.53;91222.34;5011661;28;20045;-66
2022/01/01 07:31:48;;;;;;;8.60;6.10;;;;;;;8.43;96.88;91209.47;5011673;28;20145;-66
2022/01/01 07:34:14;;;;;;;11.82;8.60;;;;;;;8.31;98.79;91217.03;5011669;28;20049;-66
2022/01/01 07:36:39;;;;;;;10.05;6.82;;;;;;;8.22;100.00;91213.47;5011539;28;20037;-66
2022/01/01 07:39:05;;;;;;;11.63;8.45;;;;;;;8.07;100.00;91212.59;5011573;28;20515;-66
2022/01/01 07:41:30;;;;;;;16.08;10.63;;;;;;;7.93;100.00;91211.72;5011455;28;20133;-66
2022/01/01 07:43:56;;;;;;;18.50;11.02;;;;;;;7.90;100.00;91216.81;5011432;28;20033;-66
2022/01/01 07:46:21;;;;;;;16.40;9.18;;;;;;;7.92;100.00;91214.66;5011109;28;20455;-66
2022/01/01 07:48:47;;;;;;;17.88;10.43;;;;;;;7.95;100.00;91224.69;5025977;28;20081;-65
2022/01/01 07:51:12;;;;;;;20.13;11.85;;;;;;;8.03;100.00;91231.97;5011312;28;20034;-65
2022/01/01 07:53:38;;;;;;;24.58;15.27;;;;;;;8.23;100.00;91229.06;5011292;28;20073;-65
2022/01/01 07:56:04;;;;;;;36.33;23.20;;;;;;;8.92;100.00;91221.41;5011292;28;20025;-65
2022/01/01 07:58:31;;;;;;;40.40;20.95;;;;;;;12.73;75.25;91225.03;5011445;28;20511;-65
2022/01/01 08:00:56;;;;;;;35.15;22.02;;;;;;;14.88;64.33;91225.41;5011185;28;20026;-65
2022/01/01 08:03:22;;;;;;;21.48;13.27;;;;;;;15.04;59.04;91221.03;5011261;28;20462;-65
2022/01/01 08:05:47;;;;;;;12.15;9.43;;;;;;;13.25;62.85;91230.34;5011101;28;20480;-65
2022/01/01 08:08:13;;;;;;;18.52;14.00;;;;;;;12.29;66.39;91234.84;5011262;28;20030;-65
2022/01/01 08:10:39;;;;;;;10.95;9.15;;;;;;;11.37;69.10;91232.00;5011244;28;20080;-65
2022/01/01 08:13:07;;;;;;;22.63;12.70;;;;;;;10.74;72.51;91234.88;5009539;28;20052;-65
2022/01/01 08:15:32;;;;;;;11.48;8.90;;;;;;;10.45;74.62;91233.38;5011069;28;20105;-65
2022/01/01 08:17:58;;;;;;;11.70;8.90;;;;;;;10.43;76.35;91238.22;5011050;28;20144;-67
2022/01/01 08:20:24;;;;;;;9.15;7.63;;;;;;;10.35;76.36;91244.22;5011263;28;20478;-67
2022/01/01 08:22:49;;;;;;;11.75;8.98;;;;;;;9.69;80.17;91240.22;5010983;28;20456;-67
2022/01/01 08:25:16;;;;;;;24.35;13.38;;;;;;;9.75;81.71;91233.72;5013156;28;20050;-67
2022/01/01 08:27:42;;;;;;;19.30;11.50;;;;;;;10.35;80.25;91240.78;5014715;28;20029;-67
2022/01/01 08:30:08;;;;;;;23.83;13.35;;;;;;;14.96;64.31;91238.72;5014915;28;20064;-67
2022/01/01 08:32:34;;;;;;;18.23;11.00;;;;;;;18.15;53.45;91238.28;5029980;28;20030;-68
2022/01/01 08:35:00;;;;;;;13.38;9.65;;;;;;;20.89;46.41;91245.78;5014809;28;20121;-71
2022/01/01 08:37:26;;;;;;;14.05;10.35;;;;;;;23.30;41.34;91250.34;5010950;28;20048;-67
2022/01/01 08:39:51;;;;;;;21.48;16.58;;;;;;;22.98;40.34;91244.69;5014529;28;20401;-68
2022/01/01 08:42:17;;;;;;;16.80;13.93;;;;;;;24.41;37.83;91257.06;5014309;28;20045;-65
2022/01/01 08:44:43;;;;;;;15.82;11.95;;;;;;;24.49;37.66;91271.47;5014226;28;20033;-69
2022/01/01 08:47:09;;;;;;;18.27;15.00;;;;;;;25.77;36.09;91270.69;5014096;28;20058;-67
2022/01/01 08:49:35;;;;;;;17.45;12.98;;;;;;;26.13;35.48;91274.06;5014190;28;20057;-66
2022/01/01 08:52:00;;;;;;;15.25;12.73;;;;;;;27.53;33.29;91264.59;5014061;28;20407;-67
2022/01/01 08:54:26;;;;;;;9.10;7.80;;;;;;;27.40;33.19;91263.53;5014219;28;20102;-67
2022/01/01 08:56:52;;;;;;;10.60;8.80;;;;;;;26.38;34.08;91272.03;5013987;28;20034;-67
2022/01/01 08:59:18;;;;;;;16.25;12.80;;;;;;;24.02;37.00;91272.47;5012303;28;20584;-67
2022/01/01 09:01:44;;;;;;;22.00;18.85;;;;;;;22.43;39.31;91268.25;5014096;28;20135;-67
2022/01/01 09:04:09;;;;;;;62.20;41.53;;;;;;;21.26;41.86;91273.00;5013856;28;20081;-67
2022/01/01 09:06:35;;;;;;;7.10;4.80;;;;;;;20.47;42.22;91257.47;5013833;28;20026;-67
2022/01/01 09:09:00;;;;;;;8.20;4.28;;;;;;;19.11;44.71;91258.66;5013922;28;20061;-67
2022/01/01 09:11:26;;;;;;;2.15;1.95;;;;;;;18.09;46.83;91250.44;5013726;28;20033;-66
2022/01/01 09:13:51;;;;;;;10.13;7.10;;;;;;;17.14;49.28;91253.97;5013213;28;20030;-67
2022/01/01 09:16:19;;;;;;;3.67;2.83;;;;;;;15.81;52.28;91240.19;5013309;28;20026;-67
2022/01/01 09:18:47;;;;;;;1.92;1.70;;;;;;;14.90;54.30;91247.31;5013690;28;20083;-66
2022/01/01 09:21:13;;;;;;;2.95;2.58;;;;;;;13.98;56.92;91247.16;5013964;28;20117;-66
2022/01/01 09:23:40;;;;;;;5.15;4.00;;;;;;;13.28;59.81;91248.44;5013958;28;20033;-66
2022/01/01 09:26:06;;;;;;;2.95;2.47;;;;;;;15.34;58.00;91248.53;5013660;28;20484;-68
2022/01/01 09:28:34;;;;;;;4.00;3.08;;;;;;;18.75;48.15;91238.19;5013203;28;20108;-68
2022/01/01 09:31:01;;;;;;;1.60;1.50;;;;;;;17.82;50.11;91243.19;5013611;28;20038;-69
2022/01/01 09:33:29;;;;;;;1.90;1.38;;;;;;;18.79;46.29;91247.16;5011523;28;20030;-69
2022/01/01 09:35:59;;;;;;;1.67;1.55;;;;;;;17.82;48.61;91246.66;5011653;28;20026;-68
2022/01/01 09:38:24;;;;;;;2.17;1.95;;;;;;;17.03;49.71;91240.97;5010929;28;20036;-67
2022/01/01 09:40:54;;;;;;;1.40;1.30;;;;;;;17.57;49.67;91242.50;5008689;28;20104;-69
2022/01/01 09:43:22;;;;;;;19.73;10.77;;;;;;;16.96;49.98;91256.91;5001491;28;20034;-68
2022/01/01 09:45:49;;;;;;;3.35;2.88;;;;;;;16.71;51.54;91252.69;5004765;28;20030;-67
2022/01/01 09:48:18;;;;;;;10.23;7.00;;;;;;;17.05;51.31;91248.72;5005507;28;20050;-69
2022/01/01 09:50:47;;;;;;;18.05;14.93;;;;;;;19.18;47.22;91234.50;5011052;28;20022;-68
2022/01/01 09:53:12;;;;;;;3.50;2.95;;;;;;;18.57;46.86;91245.81;5012902;28;20034;-67
2022/01/01 09:55:38;;;;;;;37.28;20.00;;;;;;;16.20;52.01;91246.84;5012718;28;20032;-66
2022/01/01 09:58:04;;;;;;;6.85;5.88;;;;;;;15.31;53.49;91259.13;5012517;28;20030;-68
2022/01/01 10:00:29;;;;;;;4.70;3.70;;;;;;;14.39;55.90;91251.84;5011894;28;20026;-68
2022/01/01 10:02:55;;;;;;;6.93;4.22;;;;;;;13.67;59.75;91250.09;5004402;28;20041;-67
2022/01/01 10:05:21;;;;;;;26.27;17.27;;;;;;;13.43;60.45;91264.78;5022217;28;20037;-68
2022/01/01 10:07:46;;;;;;;3.90;3.50;;;;;;;13.28;60.85;91246.56;5012320;28;20511;-67
2022/01/01 10:10:24;;;;;;;6.25;4.15;;;;;;;13.18;62.20;91260.25;5012735;28;20034;-68
2022/01/01 10:12:50;;;;;;;1.60;1.50;;;;;;;12.78;62.66;91265.72;5011856;28;20112;-68
2022/01/01 10:15:16;;;;;;;19.77;12.38;;;;;;;12.58;63.87;91260.97;5012743;28;20097;-68
2022/01/01 10:17:42;;;;;;;4.60;3.47;;;;;;;12.58;64.84;91253.75;5012497;28;20403;-67
2022/01/01 10:20:09;;;;;;;2.17;1.98;;;;;;;12.63;64.06;91257.38;5011836;28;20026;-67
2022/01/01 10:22:35;;;;;;;2.40;1.85;;;;;;;12.45;65.03;91248.53;5012429;28;20064;-66
2022/01/01 10:27:58;;;;;;;12.75;8.57;;;;;;;12.26;66.20;91251.50;5011780;28;20538;-68
2022/01/01 10:30:38;;;;;;;4.82;3.90;;;;;;;12.17;67.30;91246.16;5012358;28;20032;-68
2022/01/01 10:33:11;;;;;;;16.73;11.88;;;;;;;12.13;67.77;91239.84;5011541;28;20116;-68
2022/01/01 10:35:48;;;;;;;6.32;4.65;;;;;;;11.84;68.77;91243.06;5010968;28;20026;-67
2022/01/01 10:38:19;;;;;;;3.65;3.35;;;;;;;11.82;69.06;91250.56;5011088;28;20034;-68
2022/01/01 10:40:45;;;;;;;8.50;7.57;;;;;;;11.78;70.02;91254.13;5012439;28;20022;-67
2022/01/01 10:43:15;;;;;;;8.27;6.60;;;;;;;11.64;71.05;91254.22;5011086;28;20029;-68
2022/01/01 10:45:45;;;;;;;5.93;4.30;;;;;;;11.76;71.37;91242.97;5012172;28;20109;-68
2022/01/01 10:49:08;;;;;;;8.40;6.15;;;;;;;12.19;69.97;91259.97;5011746;28;20050;-68
2022/01/01 10:50:59;;;;;;;7.30;4.80;;;;;;;12.49;68.66;91262.84;5005222;28;20104;-68
2022/01/01 10:53:26;;;;;;;5.32;2.47;;;;;;;12.24;69.25;91257.13;5012293;28;20109;-68
2022/01/01 10:55:54;;;;;;;3.58;1.88;;;;;;;12.33;69.08;91235.81;5010857;28;20519;-68
2022/01/01 10:58:23;;;;;;;1.70;1.60;;;;;;;12.43;68.44;91235.50;5012136;28;20080;-68
2022/01/01 11:01:00;;;;;;;2.83;1.73;;;;;;;12.37;69.00;91236.78;5012186;28;20044;-69
2022/01/01 11:03:58;;;;;;;2.10;1.77;;;;;;;12.38;68.18;91237.56;5012147;28;20488;-70
2022/01/01 11:06:24;;;;;;;2.92;2.50;;;;;;;12.53;67.46;91232.56;5012059;28;20022;-68
2022/01/01 11:08:50;;;;;;;2.80;2.50;;;;;;;12.56;65.79;91239.16;5011991;28;20397;-68
2022/01/01 11:11:16;;;;;;;2.30;2.10;;;;;;;12.43;67.40;91248.84;5011970;28;20504;-68
2022/01/01 11:13:43;;;;;;;6.50;5.88;;;;;;;12.32;67.76;91238.81;5011863;28;20041;-67
2022/01/01 11:16:09;;;;;;;9.75;7.32;;;;;;;12.29;69.47;91246.31;5011770;28;20030;-68
2022/01/01 11:18:37;;;;;;;5.88;4.05;;;;;;;12.32;68.94;91252.16;5011706;28;20113;-67
2022/01/01 11:21:04;;;;;;;4.10;2.78;;;;;;;12.17;69.19;91240.81;5011785;28;20026;-67
2022/01/01 11:23:32;;;;;;;3.72;2.80;;;;;;;12.09;68.52;91227.44;5011795;28;20044;-68
2022/01/01 11:25:58;;;;;;;3.50;2.90;;;;;;;12.39;68.82;91231.91;5011671;28;20042;-68
2022/01/01 11:28:24;;;;;;;4.35;3.90;;;;;;;12.47;66.75;91225.81;5010440;28;20476;-67
2022/01/01 11:31:02;;;;;;;2.35;2.15;;;;;;;12.73;65.15;91223.13;5011736;28;20026;-67